Terminal Aerodrome Forecast
Issued by NWS Lake Charles, LA

Home | Current Version | Previous Version | Text Only | Print | Product List | Glossary On
Versions: 1 2 3 4 5 6 7 8 9 10 11 12 13 14 15 16 17 18 19
448
FTUS44 KLCH 271034 AAA
TAFBPT
TAF AMD
KBPT 271034Z 2711/2806 15012G18KT P6SM VCSH SCT015 OVC120
      TEMPO 2711/2714 BKN015 OVC070
     FM271500 17012G18KT P6SM VCSH BKN028
     FM280000 15014KT P6SM OVC015=

USA.gov is the U.S. government's official web portal to all federal, state and local government web resources and services.